createdAt,value
2022-11-04T00:05:33.808Z,64.87
2022-11-04T00:11:18.312Z,64.82
2022-11-04T00:17:00.005Z,64.77
2022-11-04T00:22:40.385Z,64.68
2022-11-04T00:28:23.202Z,64.66
2022-11-04T00:33:46.708Z,64.58
2022-11-04T00:39:08.416Z,64.51
2022-11-04T00:44:30.394Z,64.37
2022-11-04T00:49:52.479Z,64.05
2022-11-04T00:55:14.353Z,64.14
2022-11-04T01:00:36.096Z,63.79
2022-11-04T01:05:58.282Z,63.86
2022-11-04T01:11:20.142Z,63.36
2022-11-04T01:16:42.275Z,63.11
2022-11-04T01:22:04.283Z,62.92
2022-11-04T01:27:26.570Z,62.90
2022-11-04T01:32:48.464Z,62.94
2022-11-04T01:38:11.384Z,62.90
2022-11-04T01:43:42.730Z,62.68
2022-11-04T01:49:17.597Z,62.61
2022-11-04T01:54:40.867Z,62.54
2022-11-04T02:00:06.193Z,62.48
2022-11-04T02:05:33.634Z,62.68
2022-11-04T02:11:00.830Z,62.26
2022-11-04T02:16:43.105Z,62.44
2022-11-04T02:22:31.082Z,62.15
2022-11-04T02:28:11.055Z,62.27
2022-11-04T02:33:48.200Z,62.21
2022-11-04T02:39:31.659Z,62.60
2022-11-04T02:45:13.769Z,62.65
2022-11-04T02:50:54.628Z,62.70
2022-11-04T02:56:18.036Z,62.47
2022-11-04T03:01:42.499Z,62.34
2022-11-04T03:07:06.665Z,62.01
2022-11-04T03:12:35.284Z,62.14
2022-11-04T03:18:31.614Z,61.97
2022-11-04T03:23:54.384Z,61.90
2022-11-04T03:29:34.239Z,62.09
2022-11-04T03:34:56.112Z,61.99
2022-11-04T03:40:19.702Z,61.85
2022-11-04T03:45:42.442Z,62.09
2022-11-04T03:51:04.263Z,62.20
2022-11-04T03:56:35.135Z,62.36
2022-11-04T04:02:00.969Z,62.42
2022-11-04T04:07:39.259Z,62.70
2022-11-04T04:13:04.006Z,62.90
2022-11-04T04:18:31.307Z,62.88
2022-11-04T04:24:12.520Z,63.19
2022-11-04T04:29:35.996Z,63.16
2022-11-04T04:35:16.374Z,63.50
2022-11-04T04:46:24.418Z,63.94
2022-11-04T04:51:47.816Z,64.42
2022-11-04T04:57:09.802Z,64.58
2022-11-04T05:02:31.970Z,64.59
2022-11-04T05:07:53.638Z,65.07
2022-11-04T05:13:28.509Z,65.10
2022-11-04T05:18:52.174Z,65.52
2022-11-04T05:24:14.187Z,65.66
2022-11-04T05:29:36.129Z,65.71
2022-11-04T05:34:59.789Z,66.00
2022-11-04T05:40:21.869Z,66.20
2022-11-04T05:45:43.899Z,66.21
2022-11-04T05:51:05.754Z,66.02
2022-11-04T05:56:27.555Z,65.95
2022-11-04T06:01:50.465Z,65.71
2022-11-04T06:07:13.525Z,65.57
2022-11-04T06:12:35.653Z,65.49
2022-11-04T06:17:57.686Z,65.42
2022-11-04T06:23:19.611Z,65.43
2022-11-04T06:28:41.651Z,65.14
2022-11-04T06:34:03.770Z,64.95
2022-11-04T06:39:25.456Z,64.54
2022-11-04T06:44:47.329Z,63.90
2022-11-04T06:50:09.463Z,63.44
2022-11-04T06:55:31.488Z,62.75
2022-11-04T07:00:53.777Z,62.33
2022-11-04T07:06:15.943Z,62.04
2022-11-04T07:11:38.079Z,61.67
2022-11-04T07:16:59.845Z,61.68
2022-11-04T07:22:21.640Z,61.56
2022-11-04T07:27:43.365Z,61.38
2022-11-04T07:33:05.300Z,60.90
2022-11-04T07:38:27.324Z,60.57
2022-11-04T07:43:51.059Z,60.39
2022-11-04T07:49:12.984Z,59.83
2022-11-04T07:54:35.025Z,59.80
2022-11-04T07:59:57.094Z,59.25
2022-11-04T08:05:18.902Z,58.85
2022-11-04T08:10:40.903Z,58.92
2022-11-04T08:16:13.304Z,58.80
2022-11-04T08:21:35.104Z,58.47
2022-11-04T08:26:57.139Z,58.26
2022-11-04T08:32:19.666Z,58.09
2022-11-04T08:37:41.693Z,58.12
2022-11-04T08:43:03.656Z,57.96
2022-11-04T08:48:25.450Z,57.79
2022-11-04T08:53:47.216Z,57.80
2022-11-04T08:59:10.679Z,57.68
2022-11-04T09:04:32.609Z,57.37
2022-11-04T09:09:54.339Z,57.66
2022-11-04T09:15:15.890Z,57.51
2022-11-04T09:20:42.318Z,57.48
2022-11-04T09:26:07.522Z,57.21
2022-11-04T09:31:30.724Z,57.29
2022-11-04T09:36:56.027Z,57.53
2022-11-04T09:42:52.011Z,57.53
2022-11-04T09:48:22.315Z,57.39
2022-11-04T09:53:50.079Z,57.21
2022-11-04T09:59:15.087Z,57.09
2022-11-04T10:04:50.050Z,57.24
2022-11-04T10:10:36.493Z,57.23
2022-11-04T10:16:10.685Z,57.54
2022-11-04T10:21:51.243Z,57.40
2022-11-04T10:27:23.847Z,57.35
2022-11-04T10:33:07.001Z,57.27
2022-11-04T10:38:39.254Z,56.98
2022-11-04T10:44:16.831Z,56.66
2022-11-04T10:50:14.084Z,56.71
2022-11-04T10:55:43.146Z,56.65
2022-11-04T11:01:32.301Z,56.67
2022-11-04T11:06:55.587Z,56.40
2022-11-04T11:12:56.186Z,56.51
2022-11-04T11:18:21.867Z,56.24
2022-11-04T11:23:51.508Z,56.24
2022-11-04T11:29:13.294Z,56.07
2022-11-04T11:34:38.167Z,56.20
2022-11-04T11:40:00.234Z,56.25
2022-11-04T11:45:24.867Z,55.95
2022-11-04T11:51:00.835Z,55.49
2022-11-04T11:56:26.372Z,55.30
2022-11-04T12:02:17.005Z,55.20
2022-11-04T12:13:44.397Z,55.45
2022-11-04T12:19:18.781Z,55.71
2022-11-04T12:24:53.338Z,55.97
2022-11-04T12:30:20.162Z,55.55
2022-11-04T12:35:59.718Z,55.49
2022-11-04T12:42:06.757Z,55.69
2022-11-04T12:47:36.469Z,56.03
2022-11-04T12:53:07.891Z,55.97
2022-11-04T12:58:55.215Z,55.93
2022-11-04T13:04:32.093Z,56.04
2022-11-04T13:09:56.522Z,56.13
2022-11-04T13:15:26.344Z,56.45
2022-11-04T13:20:57.931Z,56.73
2022-11-04T13:26:22.738Z,56.89
2022-11-04T13:31:55.673Z,57.13
2022-11-04T13:37:40.834Z,57.44
2022-11-04T13:43:33.408Z,57.51
2022-11-04T13:49:20.667Z,57.46
2022-11-04T13:54:57.231Z,57.61
2022-11-04T14:00:22.915Z,57.69
2022-11-04T14:05:46.250Z,57.86
2022-11-04T14:11:10.734Z,58.10
2022-11-04T14:16:40.372Z,58.49
2022-11-04T14:22:07.752Z,59.15
2022-11-04T14:27:40.216Z,59.57
2022-11-04T14:33:06.418Z,59.68
2022-11-04T14:38:33.164Z,59.52
2022-11-04T14:43:56.309Z,60.18
2022-11-04T14:49:38.482Z,60.17
2022-11-04T14:55:12.555Z,60.49
2022-11-04T15:00:51.512Z,61.09
2022-11-04T15:06:14.807Z,61.35
2022-11-04T15:11:58.559Z,62.44
2022-11-04T15:17:21.718Z,63.19
2022-11-04T15:22:43.773Z,63.92
2022-11-04T15:28:16.343Z,63.89
2022-11-04T15:33:44.426Z,64.43
2022-11-04T15:39:27.078Z,65.03
2022-11-04T15:44:51.295Z,64.40
2022-11-04T15:50:23.274Z,64.36
2022-11-04T15:55:47.556Z,64.73
2022-11-04T16:01:14.343Z,65.20
2022-11-04T16:06:42.709Z,65.06
2022-11-04T16:12:08.752Z,64.88
2022-11-04T16:17:31.770Z,64.81
2022-11-04T16:22:59.830Z,64.49
2022-11-04T16:28:22.224Z,64.17
2022-11-04T16:33:44.094Z,64.57
2022-11-04T16:39:09.430Z,64.83
2022-11-04T16:44:32.509Z,64.86
2022-11-04T16:49:54.621Z,64.86
2022-11-04T16:55:16.353Z,64.90
2022-11-04T17:00:37.990Z,64.75
2022-11-04T17:06:00.076Z,65.04
2022-11-04T17:11:22.177Z,65.44
2022-11-04T17:16:44.552Z,65.15
2022-11-04T17:22:07.986Z,65.27
2022-11-04T17:27:30.224Z,65.43
2022-11-04T17:32:51.983Z,66.08
2022-11-04T17:38:14.744Z,66.04
2022-11-04T17:43:54.927Z,66.24
2022-11-04T17:49:20.740Z,66.36
2022-11-04T17:54:42.500Z,66.82
2022-11-04T18:00:06.276Z,67.15
2022-11-04T18:05:28.072Z,67.60
2022-11-04T18:10:50.099Z,67.63
2022-11-04T18:16:13.132Z,67.51
2022-11-04T18:21:34.897Z,67.75
2022-11-04T18:26:58.383Z,68.19
2022-11-04T18:32:20.366Z,68.80
2022-11-04T18:37:46.992Z,69.38
2022-11-04T18:43:09.570Z,70.33
2022-11-04T18:48:31.528Z,70.92
2022-11-04T18:53:53.529Z,71.24
2022-11-04T18:59:15.941Z,71.99
2022-11-04T19:04:37.673Z,72.63
2022-11-04T19:09:59.799Z,72.96
2022-11-04T19:15:21.616Z,72.92
2022-11-04T19:20:44.446Z,73.10
2022-11-04T19:26:13.169Z,73.43
2022-11-04T19:31:36.434Z,74.00
2022-11-04T19:36:58.469Z,74.54
2022-11-04T19:42:41.165Z,74.90
2022-11-04T19:48:02.795Z,74.86
2022-11-04T19:53:24.353Z,75.37
2022-11-04T19:58:46.911Z,75.60
2022-11-04T20:04:09.787Z,75.90
2022-11-04T20:09:31.795Z,75.82
2022-11-04T20:14:57.319Z,75.89
2022-11-04T20:20:19.391Z,76.24
2022-11-04T20:25:41.418Z,76.37
2022-11-04T20:31:09.713Z,76.33
2022-11-04T20:36:34.248Z,76.60
2022-11-04T20:41:56.005Z,76.44
2022-11-04T20:47:18.130Z,76.17
2022-11-04T20:52:40.196Z,75.74
2022-11-04T20:58:02.129Z,75.70
2022-11-04T21:03:23.987Z,75.61
2022-11-04T21:08:47.114Z,76.18
2022-11-04T21:14:12.788Z,76.02
2022-11-04T21:19:34.660Z,75.69
2022-11-04T21:24:56.590Z,75.53
2022-11-04T21:30:18.546Z,75.48
2022-11-04T21:35:43.294Z,75.56
2022-11-04T21:41:08.097Z,75.96
2022-11-04T21:46:32.034Z,75.95
2022-11-04T21:51:53.463Z,75.71
2022-11-04T21:57:15.435Z,76.18
2022-11-04T22:02:47.487Z,76.33
2022-11-04T22:08:18.417Z,75.95
2022-11-04T22:13:40.621Z,75.90
2022-11-04T22:19:04.288Z,75.91
2022-11-04T22:24:26.021Z,75.70
2022-11-04T22:29:48.143Z,75.61
2022-11-04T22:35:11.875Z,75.60
2022-11-04T22:40:34.511Z,75.58
2022-11-04T22:45:57.401Z,75.78
2022-11-04T22:51:19.353Z,75.54
2022-11-04T22:56:41.391Z,75.30
2022-11-04T23:02:03.607Z,75.28
2022-11-04T23:07:26.366Z,74.98
2022-11-04T23:13:07.104Z,74.62
2022-11-04T23:18:44.424Z,74.22
2022-11-04T23:24:25.624Z,73.98
2022-11-04T23:30:06.234Z,73.40
2022-11-04T23:35:50.991Z,72.91
2022-11-04T23:41:32.747Z,72.76
2022-11-04T23:47:13.112Z,72.70
2022-11-04T23:52:53.860Z,73.02
2022-11-04T23:58:34.629Z,73.22
